createdAt,value
2018-06-11T06:34:41.097Z,8.20
2018-06-11T06:35:41.737Z,7.90
2018-06-11T06:36:42.384Z,8.10
2018-06-11T06:37:43.028Z,7.70
2018-06-11T06:38:43.623Z,8.10
2018-06-11T06:39:44.235Z,8.60
2018-06-11T06:40:44.864Z,8.30
2018-06-11T06:41:45.461Z,8.70
2018-06-11T06:42:46.032Z,8.20
2018-06-11T06:43:46.754Z,8.00
2018-06-11T06:44:47.337Z,7.50
2018-06-11T06:45:48.020Z,7.40
2018-06-11T06:46:48.608Z,7.20
2018-06-11T06:47:52.569Z,7.20
2018-06-11T06:48:54.244Z,7.20
2018-06-11T06:49:56.508Z,8.00
2018-06-11T06:50:57.230Z,8.20
2018-06-11T06:51:59.963Z,8.00
2018-06-11T06:53:02.783Z,8.50
2018-06-11T06:54:04.476Z,7.90
2018-06-11T06:55:06.012Z,9.00
2018-06-11T06:56:10.916Z,9.10
2018-06-11T06:57:11.579Z,9.10
2018-06-11T06:58:12.181Z,8.50
2018-06-11T06:59:12.755Z,8.00
2018-06-11T07:00:13.468Z,8.10
2018-06-11T07:01:14.082Z,8.10
2018-06-11T07:02:14.652Z,7.60
2018-06-11T07:03:15.230Z,7.40
2018-06-11T07:04:15.813Z,7.20
2018-06-11T07:05:16.377Z,7.10
2018-06-11T07:06:16.970Z,7.50
2018-06-11T07:31:25.711Z,8.00
2018-06-11T07:32:26.357Z,8.00
2018-06-11T07:33:26.945Z,8.70
2018-06-11T07:34:27.522Z,8.20
2018-06-11T07:35:28.082Z,8.00
2018-06-11T07:36:28.694Z,8.00
2018-06-11T07:37:29.287Z,8.10
2018-06-11T07:38:30.045Z,7.10
2018-06-11T07:50:30.503Z,7.30
2018-06-11T07:51:31.841Z,7.80
2018-06-11T07:52:32.700Z,7.20
2018-06-11T07:53:33.328Z,7.40
2018-06-11T07:54:33.940Z,7.30
2018-06-11T07:55:34.702Z,6.90
2018-06-11T07:56:35.299Z,7.00
2018-06-11T07:57:35.924Z,7.10
2018-06-11T07:58:36.616Z,6.90
2018-06-11T07:59:37.249Z,7.20
2018-06-11T08:00:37.882Z,6.90
2018-06-11T08:01:38.551Z,7.20
2018-06-11T08:02:39.219Z,7.30
2018-06-11T08:03:39.863Z,7.50
2018-06-11T08:04:40.496Z,6.90
2018-06-11T08:05:41.840Z,6.60
2018-06-11T08:06:42.462Z,7.20
2018-06-11T08:07:43.098Z,6.90
2018-06-11T08:08:43.740Z,6.90
2018-06-11T08:09:44.389Z,6.70
2018-06-11T08:10:45.005Z,6.60
2018-06-11T08:11:45.628Z,7.20
2018-06-11T08:12:46.925Z,7.20
2018-06-11T08:13:47.557Z,6.80
2018-06-11T08:14:48.219Z,7.30
2018-06-11T08:15:48.893Z,7.10
2018-06-11T08:16:49.695Z,7.10
2018-06-11T08:17:56.506Z,6.60
2018-06-11T08:18:57.298Z,6.70
2018-06-11T08:19:57.919Z,6.70
2018-06-11T08:20:58.583Z,7.00
2018-06-11T08:22:02.328Z,6.70
2018-06-11T08:23:02.944Z,6.70
2018-06-11T08:38:24.862Z,7.80
2018-06-11T08:39:25.498Z,7.50
2018-06-11T08:40:26.419Z,6.80
2018-06-11T08:41:28.582Z,7.00
2018-06-11T08:42:29.342Z,6.60
2018-06-11T08:43:29.981Z,6.60
2018-06-11T08:44:30.555Z,7.00
2018-06-11T08:45:31.208Z,7.10
2018-06-11T08:46:31.816Z,7.10
2018-06-11T08:47:32.407Z,6.60
2018-06-11T08:48:34.925Z,6.80
2018-06-11T08:49:35.498Z,6.30
2018-06-11T08:50:36.811Z,6.60
2018-06-11T08:51:38.036Z,6.40
2018-06-11T08:52:38.719Z,6.20
2018-06-11T08:53:39.326Z,6.60
2018-06-11T08:54:39.918Z,6.30
2018-06-11T08:55:40.537Z,6.70
2018-06-11T08:56:41.909Z,6.70
2018-06-11T08:57:42.504Z,6.30
2018-06-11T08:58:43.137Z,6.60
2018-06-11T08:59:43.756Z,6.20
2018-06-11T09:00:45.696Z,6.50
2018-06-11T09:01:46.304Z,6.80
2018-06-11T09:02:46.875Z,7.00
2018-06-11T09:03:48.207Z,7.50
2018-06-11T09:04:48.864Z,6.50
2018-06-11T09:05:49.462Z,6.80
2018-06-11T09:06:50.057Z,6.90
2018-06-11T09:07:50.665Z,6.70
2018-06-11T09:08:51.297Z,6.50
2018-06-11T09:09:51.908Z,7.30
2018-06-11T09:10:55.069Z,6.80
2018-06-11T09:11:56.835Z,6.60
2018-06-11T09:12:57.700Z,7.10
2018-06-11T09:13:59.724Z,7.10
2018-06-11T09:15:01.171Z,6.70
2018-06-11T09:16:01.843Z,6.50
2018-06-11T09:17:02.475Z,7.20
2018-06-11T09:18:03.222Z,7.40
2018-06-11T09:19:07.150Z,7.30
2018-06-11T09:20:09.017Z,7.30
2018-06-11T09:21:10.200Z,6.90
2018-06-11T09:22:10.798Z,6.50
2018-06-11T09:23:11.396Z,6.70
2018-06-11T09:24:12.490Z,6.60
2018-06-11T09:25:13.115Z,7.00
2018-06-11T09:26:14.500Z,6.80
2018-06-11T09:27:15.065Z,7.50
2018-06-11T09:28:15.644Z,7.10
2018-06-11T09:29:16.232Z,7.30
2018-06-11T09:30:16.889Z,6.60
2018-06-11T09:31:17.661Z,7.30
2018-06-11T09:32:18.251Z,6.90
2018-06-11T09:33:18.921Z,7.40
2018-06-11T09:34:19.533Z,7.40
2018-06-11T09:35:20.929Z,7.80
2018-06-11T09:36:21.695Z,7.00
2018-06-11T09:37:22.309Z,6.50
2018-06-11T09:38:22.893Z,7.00
2018-06-11T09:39:23.505Z,6.60
2018-06-11T09:40:25.715Z,6.80
2018-06-11T09:41:26.475Z,6.40
2018-06-11T09:42:27.118Z,7.60
2018-06-11T09:43:27.891Z,6.70
2018-06-11T09:44:29.143Z,7.30
2018-06-11T09:45:29.752Z,6.30
2018-06-11T09:46:30.326Z,6.90
2018-06-11T09:47:35.248Z,7.40
2018-06-11T09:48:36.124Z,7.30
2018-06-11T09:49:37.697Z,6.80
2018-06-11T09:50:38.355Z,7.10
2018-06-11T09:51:38.967Z,7.10
2018-06-11T09:52:40.165Z,7.00
2018-06-11T09:53:40.887Z,6.80
2018-06-11T09:54:41.457Z,6.80
2018-06-11T09:55:42.357Z,6.70
2018-06-11T09:56:43.111Z,6.90
2018-06-11T09:57:43.719Z,6.80
2018-06-11T09:58:46.646Z,6.80
2018-06-11T09:59:47.470Z,7.30
2018-06-11T10:00:50.288Z,6.40
2018-06-11T10:01:50.930Z,7.00
2018-06-11T10:02:51.585Z,6.50
2018-06-11T10:03:52.210Z,6.50
2018-06-11T10:04:52.882Z,6.30
2018-06-11T10:05:54.139Z,6.20
2018-06-11T10:06:54.806Z,6.30
2018-06-11T10:07:56.831Z,6.90
2018-06-11T10:08:57.450Z,7.00
2018-06-11T10:09:59.101Z,6.80
2018-06-11T10:10:59.708Z,7.00
2018-06-11T10:12:03.233Z,6.40
2018-06-11T10:13:03.882Z,6.40
2018-06-11T10:14:04.460Z,6.00
2018-06-11T10:15:05.077Z,6.20
2018-06-11T10:16:05.880Z,6.20
2018-06-11T10:17:06.517Z,6.30
2018-06-11T10:18:07.072Z,6.10
2018-06-11T10:19:08.618Z,6.50
2018-06-11T10:20:09.427Z,6.60
2018-06-11T10:21:11.004Z,6.40
2018-06-11T10:22:11.583Z,6.80
2018-06-11T10:23:12.134Z,6.50
2018-06-11T10:24:12.724Z,6.20
2018-06-11T10:25:13.401Z,6.60
2018-06-11T10:26:14.212Z,6.70
2018-06-11T10:27:14.846Z,6.00
2018-06-11T10:28:15.467Z,6.30
2018-06-11T10:29:16.048Z,6.70
2018-06-11T10:30:16.833Z,6.20
2018-06-11T10:31:17.425Z,6.30
2018-06-11T10:32:18.045Z,6.10
2018-06-11T10:33:18.655Z,6.20
2018-06-11T10:34:19.227Z,6.80
2018-06-11T10:35:19.805Z,6.50
2018-06-11T10:36:21.273Z,6.30
2018-06-11T10:37:21.893Z,6.40
2018-06-11T10:38:22.591Z,6.10
2018-06-11T10:39:23.181Z,6.30
2018-06-11T10:40:23.753Z,6.60
2018-06-11T10:41:24.412Z,6.80
2018-06-11T10:42:24.994Z,6.60
2018-06-11T10:43:25.596Z,6.40
2018-06-11T10:44:26.248Z,6.50
2018-06-11T10:45:26.798Z,6.30
2018-06-11T10:46:27.361Z,6.50
2018-06-11T10:47:27.955Z,6.50
2018-06-11T10:48:28.619Z,6.40
2018-06-11T10:49:29.258Z,6.50
2018-06-11T10:50:29.849Z,6.40
2018-06-11T10:51:30.409Z,7.40
2018-06-11T10:52:30.992Z,6.40
2018-06-11T10:53:31.574Z,6.10
2018-06-11T10:54:32.137Z,6.10
2018-06-11T10:55:32.708Z,6.00
2018-06-11T10:56:33.439Z,6.30
2018-06-11T10:57:34.437Z,6.20
2018-06-11T10:58:35.085Z,6.10
2018-06-11T10:59:35.756Z,6.20
2018-06-11T11:00:37.025Z,5.90
2018-06-11T11:01:37.686Z,5.80
2018-06-11T11:02:38.836Z,5.90
2018-06-11T11:03:39.407Z,5.70
2018-06-11T11:04:40.004Z,5.50
2018-06-11T11:05:40.626Z,5.30
2018-06-11T11:06:41.439Z,5.90
2018-06-11T11:07:42.027Z,6.20
2018-06-11T11:08:44.702Z,5.80
2018-06-11T11:09:47.505Z,6.10
2018-06-11T11:10:48.171Z,6.80
2018-06-11T11:11:49.075Z,6.50
2018-06-11T11:47:52.054Z,5.80
2018-06-11T11:48:54.249Z,5.80
2018-06-11T11:49:58.283Z,6.20
2018-06-11T11:50:58.959Z,6.10
2018-06-11T11:51:59.581Z,6.20
2018-06-11T11:53:00.162Z,5.50
2018-06-11T11:54:02.565Z,5.80
2018-06-11T11:55:03.149Z,6.10
2018-06-11T11:56:03.709Z,6.10
2018-06-11T11:57:04.322Z,6.00
2018-06-11T11:58:05.061Z,5.90
2018-06-11T11:59:05.646Z,6.20
2018-06-11T12:00:06.227Z,6.40
2018-06-11T12:01:06.844Z,6.70
2018-06-11T12:02:07.408Z,6.60
2018-06-11T12:03:08.042Z,6.20
2018-06-11T12:04:09.709Z,6.30
2018-06-11T12:05:10.467Z,6.40
2018-06-11T12:06:11.043Z,6.00
2018-06-11T12:07:11.815Z,5.60
2018-06-11T12:08:12.437Z,6.20
2018-06-11T12:09:13.042Z,6.80
2018-06-11T12:10:13.634Z,6.50
2018-06-11T12:11:14.207Z,5.60
2018-06-11T12:12:14.943Z,6.00
2018-06-11T12:13:15.518Z,5.50
2018-06-11T12:14:16.085Z,6.00
2018-06-11T12:15:16.837Z,5.70
2018-06-11T12:16:17.472Z,5.50
2018-06-11T12:17:18.650Z,5.70
2018-06-11T12:18:19.242Z,5.70
2018-06-11T12:19:19.967Z,5.80
2018-06-11T12:20:20.555Z,5.80
2018-06-11T12:21:21.129Z,6.20
2018-06-11T12:22:21.725Z,6.00
2018-06-11T12:23:22.460Z,6.50
2018-06-11T12:59:21.246Z,6.10
2018-06-11T13:00:22.408Z,6.30
2018-06-11T13:01:22.967Z,6.80
2018-06-11T13:02:23.538Z,6.50
2018-06-11T13:03:24.132Z,7.40
2018-06-11T13:04:24.778Z,6.60
2018-06-11T13:05:25.344Z,6.10
2018-06-11T13:06:27.362Z,5.90
2018-06-11T13:07:28.069Z,6.80
2018-06-11T13:08:28.680Z,6.50
2018-06-11T13:09:29.296Z,6.70
2018-06-11T13:10:30.415Z,6.30
2018-06-11T13:11:31.377Z,6.60
2018-06-11T13:12:32.178Z,6.50
2018-06-11T13:13:32.891Z,6.80
2018-06-11T13:14:33.512Z,6.70
2018-06-11T13:15:34.080Z,6.90
2018-06-11T13:16:34.767Z,6.60
2018-06-11T13:17:35.349Z,7.20
2018-06-11T13:18:35.930Z,6.60
2018-06-11T13:19:36.539Z,6.70
2018-06-11T13:20:37.118Z,6.60
2018-06-11T13:21:37.663Z,7.10
2018-06-11T13:22:39.319Z,7.40
2018-06-11T13:23:39.907Z,7.00
2018-06-11T13:24:40.507Z,8.10
2018-06-11T13:25:41.180Z,7.20
2018-06-11T13:26:41.783Z,6.40
2018-06-11T13:27:42.340Z,7.20
2018-06-11T13:28:42.958Z,6.80
2018-06-11T13:29:43.583Z,6.50
2018-06-11T13:30:44.153Z,6.00
2018-06-11T13:31:44.758Z,6.20
2018-06-11T13:32:45.403Z,6.10
2018-06-11T13:33:46.093Z,5.70
2018-06-11T13:34:46.699Z,5.30
2018-06-11T13:35:49.828Z,5.60
2018-06-11T13:36:50.508Z,5.90
2018-06-11T13:37:51.785Z,5.60
2018-06-11T13:38:52.424Z,5.70
2018-06-11T13:39:53.004Z,6.00
2018-06-11T13:40:53.577Z,5.80
2018-06-11T13:41:54.232Z,5.40
2018-06-11T13:42:54.890Z,5.40
2018-06-11T13:43:56.749Z,5.10
2018-06-11T13:44:57.423Z,4.80
2018-06-11T13:46:00.318Z,5.20
2018-06-11T13:47:00.914Z,5.20
2018-06-11T13:48:02.084Z,5.00
2018-06-11T13:49:02.667Z,5.00
2018-06-11T13:50:03.260Z,5.00
2018-06-11T13:51:03.874Z,4.60
2018-06-11T13:52:04.533Z,5.00
2018-06-11T13:53:05.118Z,4.90
2018-06-11T13:54:05.721Z,4.60
2018-06-11T13:55:06.338Z,4.60
2018-06-11T13:56:06.900Z,4.30
2018-06-11T13:57:07.485Z,4.80
2018-06-11T13:58:08.107Z,5.00
2018-06-11T13:59:08.685Z,4.70
2018-06-11T14:00:09.533Z,4.40
2018-06-11T14:01:10.149Z,4.70
2018-06-11T14:02:11.817Z,4.90
2018-06-11T14:03:13.514Z,4.80
2018-06-11T14:04:14.092Z,4.40
2018-06-11T14:05:14.686Z,4.40
2018-06-11T14:06:15.262Z,4.10
2018-06-11T14:07:15.857Z,4.60
2018-06-11T14:08:16.426Z,4.30
2018-06-11T14:09:17.045Z,4.60
2018-06-11T14:10:17.641Z,4.60
2018-06-11T14:11:18.212Z,4.70
2018-06-11T14:12:18.772Z,4.60
2018-06-11T14:13:19.386Z,5.40
2018-06-11T14:14:19.952Z,5.10
2018-06-11T14:15:20.547Z,4.90
2018-06-11T14:16:21.110Z,4.80
2018-06-11T14:17:21.686Z,4.70
2018-06-11T14:18:22.286Z,5.10
2018-06-11T14:19:22.868Z,4.90
2018-06-11T14:20:23.541Z,5.30
2018-06-11T14:21:24.904Z,5.10
2018-06-11T14:22:25.495Z,5.00
2018-06-11T14:23:26.066Z,5.00
2018-06-11T14:24:26.639Z,5.20
2018-06-11T14:25:27.260Z,4.90
2018-06-11T14:26:27.832Z,4.60
2018-06-11T14:27:28.434Z,5.00
2018-06-11T14:28:29.051Z,4.70
2018-06-11T14:29:29.692Z,4.80
2018-06-11T14:30:30.358Z,4.70
2018-06-11T14:31:30.977Z,4.80
2018-06-11T14:32:34.287Z,4.50
2018-06-11T14:33:35.134Z,4.60
2018-06-11T14:34:35.764Z,4.30
2018-06-11T14:35:36.338Z,4.30
2018-06-11T14:36:36.908Z,4.30
2018-06-11T14:37:37.492Z,4.50
2018-06-11T14:38:38.092Z,4.50
2018-06-11T14:39:38.692Z,4.70
2018-06-11T14:40:39.371Z,4.30
2018-06-11T14:41:42.606Z,4.60
2018-06-11T14:42:43.187Z,4.20
2018-06-11T14:43:43.784Z,4.30
2018-06-11T14:44:44.396Z,4.90
2018-06-11T14:45:44.973Z,4.60
2018-06-11T14:46:45.606Z,4.80
2018-06-11T14:47:46.197Z,4.40
2018-06-11T14:48:46.765Z,4.50
2018-06-11T14:49:50.999Z,4.20
2018-06-11T14:50:51.760Z,4.20
2018-06-11T14:51:52.326Z,5.00
2018-06-11T14:52:58.678Z,4.80
2018-06-11T14:53:59.894Z,4.50
2018-06-11T14:55:00.472Z,4.70
2018-06-11T14:56:01.913Z,4.90
2018-06-11T14:57:02.623Z,4.70
2018-06-11T14:58:03.414Z,4.60
2018-06-11T14:59:04.038Z,4.40
2018-06-11T15:00:04.627Z,4.50
2018-06-11T15:01:05.368Z,4.60
2018-06-11T15:02:06.118Z,4.50
2018-06-11T15:03:07.998Z,4.50
2018-06-11T15:04:08.622Z,4.40
2018-06-11T15:05:27.770Z,4.30
2018-06-11T15:06:28.816Z,5.20
2018-06-11T15:07:29.549Z,4.20
2018-06-11T15:08:30.120Z,4.70
2018-06-11T15:22:57.500Z,5.60
2018-06-11T15:24:03.078Z,5.60
2018-06-11T15:25:03.744Z,6.40
2018-06-11T15:26:08.028Z,6.30
2018-06-11T15:27:09.308Z,6.00
2018-06-11T15:28:09.894Z,6.20
2018-06-11T15:29:10.502Z,6.80
2018-06-11T15:30:14.533Z,6.40
2018-06-11T15:42:53.206Z,7.40
2018-06-11T15:43:53.946Z,7.40
2018-06-11T15:44:57.298Z,6.80
2018-06-11T15:46:00.775Z,7.10
2018-06-11T15:47:03.611Z,7.30
2018-06-11T15:48:21.598Z,7.50
2018-06-11T15:49:47.123Z,7.50
2018-06-11T15:50:52.711Z,7.30
2018-06-11T15:51:53.394Z,7.00
2018-06-11T15:52:55.436Z,6.40
2018-06-11T15:53:56.113Z,5.40
2018-06-11T15:54:56.798Z,5.90
2018-06-11T15:55:58.155Z,4.80
2018-06-11T15:56:58.935Z,4.40
2018-06-11T15:57:59.658Z,4.30
2018-06-11T16:00:02.744Z,4.70
2018-06-11T16:00:36.126Z,4.20
